createdAt,value
2023-06-14T00:00:55.783Z,1328.00
2023-06-14T00:01:56.860Z,1325.00
2023-06-14T00:02:57.190Z,1326.00
2023-06-14T00:03:57.172Z,1381.00
2023-06-14T00:04:56.980Z,1371.00
2023-06-14T00:05:57.077Z,1334.00
2023-06-14T00:06:57.100Z,1327.00
2023-06-14T00:07:57.211Z,1324.00
2023-06-14T00:08:57.194Z,1357.00
2023-06-14T00:09:57.230Z,1327.00
2023-06-14T00:10:57.312Z,1309.00
2023-06-14T00:11:57.363Z,1324.00
2023-06-14T00:12:56.383Z,1308.00
2023-06-14T00:13:56.428Z,1320.00
2023-06-14T00:14:56.489Z,1330.00
2023-06-14T00:15:56.521Z,1308.00
2023-06-14T00:16:56.608Z,1334.00
2023-06-14T00:17:56.683Z,1344.00
2023-06-14T00:18:57.657Z,1336.00
2023-06-14T00:19:56.808Z,1316.00
2023-06-14T00:20:57.738Z,1340.00
2023-06-14T00:21:56.792Z,1288.00
2023-06-14T00:22:56.886Z,1308.00
2023-06-14T00:23:57.915Z,1294.00
2023-06-14T00:24:57.941Z,1306.00
2023-06-14T00:25:57.002Z,1324.00
2023-06-14T00:26:58.082Z,1290.00
2023-06-14T00:27:57.139Z,1305.00
2023-06-14T00:28:58.140Z,1279.00
2023-06-14T00:29:58.206Z,1311.00
2023-06-14T00:30:58.254Z,1317.00
2023-06-14T00:31:58.370Z,1304.00
2023-06-14T00:32:57.399Z,1314.00
2023-06-14T00:33:57.417Z,1296.00
2023-06-14T00:34:57.533Z,1320.00
2023-06-14T00:35:57.555Z,1317.00
2023-06-14T00:36:58.568Z,1272.00
2023-06-14T00:37:58.634Z,1311.00
2023-06-14T00:38:57.675Z,1315.00
2023-06-14T00:39:58.728Z,1296.00
2023-06-14T00:40:58.776Z,1260.00
2023-06-14T00:41:58.821Z,1294.00
2023-06-14T00:42:58.864Z,1325.00
2023-06-14T00:43:58.924Z,1305.00
2023-06-14T00:44:58.976Z,1274.00
2023-06-14T00:45:59.092Z,1306.00
2023-06-14T00:46:59.236Z,1281.00
2023-06-14T00:47:59.218Z,1263.00
2023-06-14T00:48:59.225Z,1312.00
2023-06-14T00:49:59.230Z,1288.00
2023-06-14T00:50:59.343Z,1288.00
2023-06-14T00:51:59.357Z,1314.00
2023-06-14T00:52:59.405Z,1257.00
2023-06-14T00:53:58.473Z,1271.00
2023-06-14T00:54:59.526Z,1281.00
2023-06-14T00:55:58.561Z,1281.00
2023-06-14T00:56:59.610Z,1311.00
2023-06-14T00:57:59.682Z,1269.00
2023-06-14T00:58:59.722Z,1292.00
2023-06-14T00:59:59.806Z,1277.00
2023-06-14T01:00:58.828Z,1278.00
2023-06-14T01:01:59.902Z,1295.00
2023-06-14T01:03:00.031Z,1251.00
2023-06-14T01:03:59.035Z,1281.00
2023-06-14T01:05:00.048Z,1278.00
2023-06-14T01:06:00.084Z,1264.00
2023-06-14T01:07:00.193Z,1260.00
2023-06-14T01:07:59.179Z,1263.00
2023-06-14T01:09:00.204Z,1273.00
2023-06-14T01:10:00.278Z,1259.00
2023-06-14T01:10:59.305Z,1254.00
2023-06-14T01:12:00.328Z,1286.00
2023-06-14T01:13:00.403Z,1263.00
2023-06-14T01:14:00.422Z,1265.00
2023-06-14T01:14:59.457Z,1265.00
2023-06-14T01:16:00.575Z,1288.00
2023-06-14T01:17:00.569Z,1235.00
2023-06-14T01:18:00.644Z,1268.00
2023-06-14T01:19:00.676Z,1268.00
2023-06-14T01:20:00.713Z,1266.00
2023-06-14T01:21:00.758Z,1266.00
2023-06-14T01:22:00.816Z,1260.00
2023-06-14T01:22:59.911Z,1231.00
2023-06-14T01:23:59.935Z,1264.00
2023-06-14T01:25:00.948Z,1275.00
2023-06-14T01:25:59.988Z,1254.00
2023-06-14T01:27:00.011Z,1254.00
2023-06-14T01:28:01.057Z,1236.00
2023-06-14T01:29:01.105Z,1274.00
2023-06-14T01:30:00.181Z,1228.00
2023-06-14T01:31:01.181Z,1243.00
2023-06-14T01:32:00.232Z,1244.00
2023-06-14T01:33:00.340Z,1265.00
2023-06-14T01:34:01.384Z,1268.00
2023-06-14T01:35:01.492Z,1243.00
2023-06-14T01:36:01.444Z,1270.00
2023-06-14T01:37:01.489Z,1256.00
2023-06-14T01:38:01.556Z,1261.00
2023-06-14T01:39:01.561Z,1253.00
2023-06-14T01:40:00.596Z,1202.00
2023-06-14T01:41:01.667Z,1258.00
2023-06-14T01:42:01.807Z,1255.00
2023-06-14T01:43:00.769Z,1248.00
2023-06-14T01:44:00.817Z,1262.00
2023-06-14T01:45:01.850Z,1240.00
2023-06-14T01:46:00.940Z,1244.00
2023-06-14T01:47:01.957Z,1229.00
2023-06-14T01:48:02.089Z,1252.00
2023-06-14T01:49:02.026Z,1230.00
2023-06-14T01:50:02.073Z,1232.00
2023-06-14T01:51:01.110Z,1248.00
2023-06-14T01:52:02.146Z,1241.00
2023-06-14T01:53:02.250Z,1252.00
2023-06-14T01:54:02.256Z,1253.00
2023-06-14T01:55:02.287Z,1236.00
2023-06-14T01:56:01.313Z,1241.00
2023-06-14T01:57:02.348Z,1239.00
2023-06-14T01:58:02.384Z,1253.00
2023-06-14T01:59:01.425Z,1245.00
2023-06-14T02:00:02.469Z,1236.00
2023-06-14T02:01:02.541Z,1241.00
2023-06-14T02:02:02.570Z,1224.00
2023-06-14T02:03:02.639Z,1221.00
2023-06-14T02:04:01.663Z,1239.00
2023-06-14T02:05:01.700Z,1239.00
2023-06-14T02:06:02.871Z,1232.00
2023-06-14T02:07:01.849Z,1218.00
2023-06-14T02:08:01.866Z,1221.00
2023-06-14T02:09:01.896Z,1216.00
2023-06-14T02:10:02.962Z,1224.00
2023-06-14T02:11:02.944Z,1230.00
2023-06-14T02:12:02.943Z,1214.00
2023-06-14T02:13:02.975Z,1203.00
2023-06-14T02:14:02.977Z,1219.00
2023-06-14T02:15:02.022Z,1231.00
2023-06-14T02:16:02.056Z,1220.00
2023-06-14T02:17:02.081Z,1221.00
2023-06-14T02:18:03.182Z,1219.00
2023-06-14T02:19:03.143Z,1225.00
2023-06-14T02:20:03.149Z,1208.00
2023-06-14T02:21:02.193Z,1199.00
2023-06-14T02:22:03.227Z,1205.00
2023-06-14T02:23:02.365Z,1206.00
2023-06-14T02:24:03.366Z,1211.00
2023-06-14T02:25:03.460Z,1201.00
2023-06-14T02:26:03.410Z,1199.00
2023-06-14T02:27:03.310Z,1201.00
2023-06-14T02:28:03.386Z,1200.00
2023-06-14T02:29:03.385Z,1204.00
2023-06-14T02:30:03.370Z,1191.00
2023-06-14T02:31:03.439Z,1199.00
2023-06-14T02:32:03.576Z,1204.00
2023-06-14T02:33:03.530Z,1197.00
2023-06-14T02:34:03.638Z,1198.00
2023-06-14T02:35:02.534Z,1199.00
2023-06-14T02:36:03.554Z,1195.00
2023-06-14T02:37:03.628Z,1195.00
2023-06-14T02:38:03.635Z,1172.00
2023-06-14T02:39:03.650Z,1192.00
2023-06-14T02:40:03.664Z,1181.00
2023-06-14T02:41:03.683Z,1189.00
2023-06-14T02:42:02.715Z,1184.00
2023-06-14T02:43:03.725Z,1186.00
2023-06-14T02:44:03.711Z,1190.00
2023-06-14T02:45:03.739Z,1187.00
2023-06-14T02:46:03.760Z,1184.00
2023-06-14T02:47:02.800Z,1190.00
2023-06-14T02:48:03.957Z,1178.00
2023-06-14T02:49:03.908Z,1184.00
2023-06-14T02:50:02.862Z,1178.00
2023-06-14T02:51:02.886Z,1173.00
2023-06-14T02:52:02.909Z,1181.00
2023-06-14T02:53:02.928Z,1180.00
2023-06-14T02:54:03.963Z,1166.00
2023-06-14T02:55:03.971Z,1161.00
2023-06-14T02:56:04.011Z,1166.00
2023-06-14T02:57:04.029Z,1163.00
2023-06-14T02:58:04.114Z,1164.00
2023-06-14T02:59:03.098Z,1165.00
2023-06-14T03:00:03.121Z,1161.00
2023-06-14T03:01:04.208Z,1162.00
2023-06-14T03:02:04.213Z,1163.00
2023-06-14T03:03:04.253Z,1153.00
2023-06-14T03:04:04.418Z,1158.00
2023-06-14T03:05:03.223Z,1155.00
2023-06-14T03:06:03.251Z,1159.00
2023-06-14T03:07:03.305Z,1160.00
2023-06-14T03:08:03.361Z,1150.00
2023-06-14T03:09:04.406Z,1149.00
2023-06-14T03:10:04.435Z,1148.00
2023-06-14T03:11:04.441Z,1134.00
2023-06-14T03:12:04.433Z,1147.00
2023-06-14T03:13:04.469Z,1144.00
2023-06-14T03:14:04.500Z,1137.00
2023-06-14T03:15:04.521Z,1143.00
2023-06-14T03:16:04.514Z,1140.00
2023-06-14T03:17:04.605Z,1144.00
2023-06-14T03:18:04.697Z,1144.00
2023-06-14T03:19:04.647Z,1133.00
2023-06-14T03:20:03.674Z,1138.00
2023-06-14T03:21:04.665Z,1130.00
2023-06-14T03:22:04.703Z,1130.00
2023-06-14T03:23:04.758Z,1132.00
2023-06-14T03:24:04.933Z,1125.00
2023-06-14T03:25:04.787Z,1125.00
2023-06-14T03:26:04.810Z,1133.00
2023-06-14T03:27:04.834Z,1126.00
2023-06-14T03:28:03.824Z,1132.00
2023-06-14T03:29:04.850Z,1113.00
2023-06-14T03:30:03.885Z,1118.00
2023-06-14T03:31:05.589Z,1120.00
2023-06-14T03:32:04.882Z,1116.00
2023-06-14T03:33:03.959Z,1111.00
2023-06-14T03:34:04.932Z,1110.00
2023-06-14T03:35:04.953Z,1127.00
2023-06-14T03:36:04.949Z,1119.00
2023-06-14T03:37:04.954Z,1116.00
2023-06-14T03:38:04.970Z,1109.00
2023-06-14T03:39:03.991Z,1104.00
2023-06-14T03:40:04.993Z,1108.00
2023-06-14T03:41:05.044Z,1101.00
2023-06-14T03:42:05.060Z,1101.00
2023-06-14T03:43:04.086Z,1108.00
2023-06-14T03:44:05.078Z,1097.00
2023-06-14T03:45:05.119Z,1103.00
2023-06-14T03:46:05.141Z,1104.00
2023-06-14T03:47:04.129Z,1093.00
2023-06-14T03:48:05.211Z,1091.00
2023-06-14T03:49:05.165Z,1095.00
2023-06-14T03:50:05.227Z,1101.00
2023-06-14T03:51:04.188Z,1089.00
2023-06-14T03:52:05.203Z,1094.00
2023-06-14T03:53:05.221Z,1084.00
2023-06-14T03:54:17.801Z,1083.00
2023-06-14T03:56:04.225Z,1084.00
2023-06-14T03:57:05.209Z,1088.00
2023-06-14T03:58:05.216Z,1092.00
2023-06-14T03:59:04.214Z,1090.00
2023-06-14T04:00:05.210Z,1093.00
2023-06-14T04:01:05.207Z,1093.00
2023-06-14T04:02:05.208Z,1090.00
2023-06-14T04:03:05.257Z,1086.00
2023-06-14T04:04:04.224Z,1085.00
2023-06-14T04:05:05.222Z,1090.00
2023-06-14T04:06:05.189Z,1076.00
2023-06-14T04:07:04.164Z,1075.00
2023-06-14T04:08:05.160Z,1071.00
2023-06-14T04:09:05.152Z,1072.00
2023-06-14T04:10:05.130Z,1076.00
2023-06-14T04:11:05.154Z,1059.00
2023-06-14T04:12:05.121Z,1061.00
2023-06-14T04:13:05.128Z,1055.00
2023-06-14T04:14:04.106Z,1058.00
2023-06-14T04:15:18.890Z,1070.00
2023-06-14T04:16:05.119Z,1071.00
2023-06-14T04:17:05.080Z,1073.00
2023-06-14T04:18:04.147Z,1076.00
2023-06-14T04:19:05.070Z,1066.00
2023-06-14T04:20:05.129Z,1071.00
2023-06-14T04:21:05.053Z,1060.00
2023-06-14T04:22:05.061Z,1044.00
2023-06-14T04:23:04.036Z,1048.00
2023-06-14T04:24:05.076Z,1041.00
2023-06-14T04:25:05.752Z,1058.00
2023-06-14T04:26:05.053Z,1050.00
2023-06-14T04:27:05.020Z,1043.00
2023-06-14T04:28:05.016Z,1045.00
2023-06-14T04:29:04.039Z,1042.00
2023-06-14T04:30:05.086Z,1042.00
2023-06-14T04:31:04.008Z,1043.00
2023-06-14T04:32:05.000Z,1034.00
2023-06-14T04:33:05.083Z,1040.00
2023-06-14T04:34:05.018Z,1016.00
2023-06-14T04:35:05.055Z,1036.00
2023-06-14T04:36:04.964Z,1040.00
2023-06-14T04:37:04.962Z,1025.00
2023-06-14T04:38:04.993Z,1020.00
2023-06-14T04:39:03.954Z,1020.00
2023-06-14T04:40:04.946Z,1017.00
2023-06-14T04:41:04.953Z,1024.00
2023-06-14T04:42:05.014Z,1011.00
2023-06-14T04:43:04.981Z,1016.00
2023-06-14T04:44:04.982Z,1003.00
2023-06-14T04:45:04.984Z,1011.00
2023-06-14T04:46:05.013Z,1011.00
2023-06-14T04:47:05.002Z,1003.00
2023-06-14T04:48:05.044Z,991.00
2023-06-14T04:49:05.028Z,1006.00
2023-06-14T04:50:04.036Z,992.00
2023-06-14T04:51:04.029Z,996.00
2023-06-14T04:52:05.060Z,977.00
2023-06-14T04:53:05.102Z,912.00
2023-06-14T04:54:05.143Z,638.00
2023-06-14T04:55:04.178Z,596.00
2023-06-14T04:56:05.313Z,538.00
2023-06-14T04:57:05.241Z,500.00
2023-06-14T04:58:05.275Z,504.00
2023-06-14T04:59:05.317Z,500.00
2023-06-14T05:00:05.373Z,498.00
2023-06-14T05:01:05.421Z,500.00
2023-06-14T05:02:05.410Z,506.00
2023-06-14T05:03:04.557Z,507.00
2023-06-14T05:04:05.609Z,500.00
2023-06-14T05:05:04.526Z,502.00
2023-06-14T05:06:05.577Z,500.00
2023-06-14T05:07:05.563Z,497.00
2023-06-14T05:08:04.608Z,503.00
2023-06-14T05:09:05.632Z,505.00
2023-06-14T05:10:05.656Z,502.00
2023-06-14T05:11:05.687Z,501.00
2023-06-14T05:12:05.709Z,497.00
2023-06-14T05:13:05.748Z,500.00
2023-06-14T05:14:05.787Z,500.00
2023-06-14T05:15:05.809Z,500.00
2023-06-14T05:16:05.894Z,505.00
2023-06-14T05:17:04.867Z,504.00
2023-06-14T05:18:06.000Z,500.00
2023-06-14T05:19:05.947Z,511.00
2023-06-14T05:20:06.011Z,509.00
2023-06-14T05:21:06.029Z,511.00
2023-06-14T05:22:05.144Z,509.00
2023-06-14T05:23:05.135Z,506.00
2023-06-14T05:24:06.263Z,512.00
2023-06-14T05:25:06.242Z,506.00
2023-06-14T05:26:06.275Z,499.00
2023-06-14T05:27:06.358Z,503.00
2023-06-14T05:28:06.374Z,502.00
2023-06-14T05:29:05.406Z,501.00
2023-06-14T05:30:05.475Z,509.00
2023-06-14T05:31:05.537Z,518.00
2023-06-14T05:32:06.568Z,514.00
2023-06-14T05:33:06.602Z,515.00
2023-06-14T05:34:06.681Z,520.00
2023-06-14T05:35:06.663Z,518.00
2023-06-14T05:36:08.654Z,513.00
2023-06-14T05:37:06.691Z,584.00
2023-06-14T05:38:06.701Z,631.00
2023-06-14T05:39:06.673Z,658.00
2023-06-14T05:40:06.679Z,728.00
2023-06-14T05:41:06.670Z,765.00
2023-06-14T05:42:06.679Z,855.00
2023-06-14T05:43:06.667Z,1011.00
2023-06-14T05:44:06.655Z,1038.00
2023-06-14T05:45:06.619Z,1088.00
2023-06-14T05:46:05.624Z,1130.00
2023-06-14T05:47:06.701Z,1177.00
2023-06-14T05:48:06.660Z,1218.00
2023-06-14T05:49:06.627Z,1217.00
2023-06-14T05:50:06.616Z,1207.00
2023-06-14T05:51:05.613Z,1211.00
2023-06-14T05:52:06.583Z,1255.00
2023-06-14T05:53:06.576Z,1283.00
2023-06-14T05:54:06.612Z,1296.00
2023-06-14T05:55:06.559Z,1314.00
2023-06-14T05:56:06.572Z,1326.00
2023-06-14T05:57:06.557Z,1282.00
2023-06-14T05:58:05.557Z,1277.00
2023-06-14T05:59:05.566Z,1312.00
2023-06-14T06:00:06.543Z,1347.00
2023-06-14T06:01:06.520Z,1352.00
2023-06-14T06:02:06.532Z,1387.00
2023-06-14T06:03:06.573Z,1415.00
2023-06-14T06:04:06.619Z,1382.00
2023-06-14T06:05:06.487Z,1143.00
2023-06-14T06:06:05.489Z,1083.00
2023-06-14T06:07:06.502Z,1022.00
2023-06-14T06:08:06.491Z,1004.00
2023-06-14T06:09:06.476Z,1045.00
2023-06-14T06:10:06.518Z,1094.00
2023-06-14T06:11:06.472Z,1146.00
2023-06-14T06:12:05.448Z,1165.00
2023-06-14T06:13:05.466Z,1154.00
2023-06-14T06:14:06.443Z,1200.00
2023-06-14T06:15:06.456Z,1134.00
2023-06-14T06:16:06.462Z,1134.00
2023-06-14T06:17:06.541Z,1183.00
2023-06-14T06:18:06.528Z,1179.00
2023-06-14T06:19:06.561Z,1212.00
2023-06-14T06:20:06.550Z,1276.00
2023-06-14T06:21:06.558Z,1280.00
2023-06-14T06:22:05.576Z,1254.00
2023-06-14T06:23:06.595Z,1266.00
2023-06-14T06:24:06.678Z,1304.00
2023-06-14T06:25:05.611Z,1292.00
2023-06-14T06:26:05.668Z,1336.00
2023-06-14T06:27:05.615Z,1382.00
2023-06-14T06:28:06.663Z,1425.00
2023-06-14T06:29:06.707Z,1444.00
2023-06-14T06:30:06.776Z,1430.00
2023-06-14T06:31:06.831Z,1463.00
2023-06-14T06:32:06.881Z,1448.00
2023-06-14T06:33:06.983Z,1382.00
2023-06-14T06:34:06.969Z,1445.00
2023-06-14T06:35:07.037Z,1452.00
2023-06-14T06:36:07.078Z,1468.00
2023-06-14T06:37:06.111Z,1392.00
2023-06-14T06:38:07.163Z,1402.00
2023-06-14T06:39:07.208Z,1462.00
2023-06-14T06:40:07.330Z,1455.00
2023-06-14T06:41:07.230Z,1451.00
2023-06-14T06:42:07.302Z,1453.00
2023-06-14T06:43:07.324Z,1431.00
2023-06-14T06:44:06.319Z,1418.00
2023-06-14T06:45:06.328Z,1384.00
2023-06-14T06:46:07.409Z,1352.00
2023-06-14T06:47:07.368Z,1418.00
2023-06-14T06:48:06.471Z,1445.00
2023-06-14T06:49:06.410Z,1424.00
2023-06-14T06:50:07.414Z,1446.00
2023-06-14T06:51:07.447Z,1433.00
2023-06-14T06:52:06.446Z,1433.00
2023-06-14T06:53:07.456Z,1477.00
2023-06-14T06:54:07.613Z,1588.00
2023-06-14T06:55:07.482Z,1644.00
2023-06-14T06:56:07.494Z,1688.00
2023-06-14T06:57:07.489Z,1762.00
2023-06-14T06:58:06.527Z,1806.00
2023-06-14T06:59:07.533Z,1839.00
2023-06-14T07:00:06.529Z,1887.00
2023-06-14T07:01:07.526Z,1908.00
2023-06-14T07:02:07.641Z,1928.00
2023-06-14T07:03:06.636Z,1943.00
2023-06-14T07:04:07.638Z,1992.00
2023-06-14T07:05:06.701Z,1996.00
2023-06-14T07:06:07.814Z,2011.00
2023-06-14T07:07:07.735Z,2022.00
2023-06-14T07:08:07.778Z,2058.00
2023-06-14T07:09:07.831Z,2080.00
2023-06-14T07:10:07.896Z,2088.00
2023-06-14T07:11:07.940Z,2090.00
2023-06-14T07:12:07.979Z,2101.00
2023-06-14T07:13:10.254Z,2115.00
2023-06-14T07:14:08.039Z,2134.00
2023-06-14T07:15:07.992Z,2137.00
2023-06-14T07:16:08.074Z,2120.00
2023-06-14T07:17:08.008Z,2115.00
2023-06-14T07:18:08.056Z,2129.00
2023-06-14T07:19:08.007Z,2132.00
2023-06-14T07:20:07.969Z,2141.00
2023-06-14T07:21:07.963Z,2140.00
2023-06-14T07:22:07.957Z,2162.00
2023-06-14T07:23:06.963Z,2162.00
2023-06-14T07:24:07.970Z,2161.00
2023-06-14T07:25:06.952Z,2166.00
2023-06-14T07:26:06.923Z,2163.00
2023-06-14T07:27:07.920Z,2158.00
2023-06-14T07:28:07.919Z,2179.00
2023-06-14T07:29:07.924Z,2156.00
2023-06-14T07:30:08.264Z,2184.00
2023-06-14T07:31:07.880Z,2195.00
2023-06-14T07:32:07.879Z,2184.00
2023-06-14T07:33:08.023Z,2181.00
2023-06-14T07:34:06.916Z,2185.00
2023-06-14T07:35:07.912Z,2192.00
2023-06-14T07:36:07.857Z,2187.00
2023-06-14T07:37:06.860Z,2178.00
2023-06-14T07:38:06.835Z,2195.00
2023-06-14T07:39:06.872Z,2187.00
2023-06-14T07:40:07.838Z,2202.00
2023-06-14T07:41:07.823Z,2186.00
2023-06-14T07:42:06.813Z,2197.00
2023-06-14T07:43:07.819Z,2188.00
2023-06-14T07:44:07.863Z,2194.00
2023-06-14T07:45:07.897Z,2208.00
2023-06-14T07:46:08.405Z,2190.00
2023-06-14T07:47:07.985Z,2204.00
2023-06-14T07:48:08.146Z,1866.00
2023-06-14T07:49:08.292Z,1896.00
2023-06-14T07:50:08.120Z,1464.00
2023-06-14T07:51:08.170Z,1207.00
2023-06-14T07:52:08.236Z,1066.00
2023-06-14T07:53:08.302Z,808.00
2023-06-14T07:54:07.663Z,673.00
2023-06-14T07:55:08.368Z,595.00
2023-06-14T07:56:08.406Z,544.00
2023-06-14T07:57:08.405Z,500.00
2023-06-14T07:58:08.411Z,499.00
2023-06-14T07:59:08.434Z,504.00
2023-06-14T08:00:07.482Z,500.00
2023-06-14T08:01:07.528Z,500.00
2023-06-14T08:02:08.509Z,506.00
2023-06-14T08:03:07.522Z,507.00
2023-06-14T08:04:08.493Z,488.00
2023-06-14T08:05:08.475Z,521.00
2023-06-14T08:06:08.556Z,531.00
2023-06-14T08:07:07.941Z,507.00
2023-06-14T08:08:08.599Z,505.00
2023-06-14T08:09:08.647Z,512.00
2023-06-14T08:10:08.656Z,497.00
2023-06-14T08:11:08.768Z,528.00
2023-06-14T08:12:07.772Z,500.00
2023-06-14T08:13:08.826Z,530.00
2023-06-14T08:14:08.902Z,515.00
2023-06-14T08:15:14.372Z,503.00
2023-06-14T08:16:08.977Z,480.00
2023-06-14T08:17:07.932Z,454.00
2023-06-14T08:18:07.980Z,449.00
2023-06-14T08:19:08.912Z,400.00
2023-06-14T08:20:07.894Z,400.00
2023-06-14T08:21:08.901Z,451.00
2023-06-14T08:22:08.868Z,470.00
2023-06-14T08:23:08.860Z,498.00
2023-06-14T08:24:07.897Z,540.00
2023-06-14T08:25:08.865Z,533.00
2023-06-14T08:26:08.862Z,544.00
2023-06-14T08:27:09.667Z,558.00
2023-06-14T08:28:08.859Z,546.00
2023-06-14T08:29:08.889Z,530.00
2023-06-14T08:30:07.886Z,538.00
2023-06-14T08:31:08.811Z,540.00
2023-06-14T08:32:08.863Z,544.00
2023-06-14T08:33:16.619Z,552.00
2023-06-14T08:34:08.839Z,553.00
2023-06-14T08:35:08.816Z,558.00
2023-06-14T08:36:07.785Z,571.00
2023-06-14T08:37:08.784Z,566.00
2023-06-14T08:38:08.783Z,572.00
2023-06-14T08:39:07.767Z,561.00
2023-06-14T08:40:07.769Z,560.00
2023-06-14T08:41:08.764Z,544.00
2023-06-14T08:42:13.094Z,538.00
2023-06-14T08:43:08.755Z,504.00
2023-06-14T08:44:08.728Z,493.00
2023-06-14T08:45:09.173Z,472.00
2023-06-14T08:46:08.724Z,487.00
2023-06-14T08:47:08.717Z,480.00
2023-06-14T08:48:07.833Z,506.00
2023-06-14T08:49:08.690Z,500.00
2023-06-14T08:50:19.772Z,504.00
2023-06-14T08:51:08.740Z,504.00
2023-06-14T08:52:08.684Z,505.00
2023-06-14T08:53:08.666Z,514.00
2023-06-14T08:54:08.670Z,505.00
2023-06-14T08:55:08.668Z,503.00
2023-06-14T08:56:08.659Z,534.00
2023-06-14T08:57:07.649Z,514.00
2023-06-14T08:58:08.664Z,514.00
2023-06-14T08:59:08.645Z,504.00
2023-06-14T09:00:08.676Z,520.00
2023-06-14T09:01:08.731Z,525.00
2023-06-14T09:02:13.168Z,498.00
2023-06-14T09:03:08.652Z,499.00
2023-06-14T09:04:08.601Z,500.00
2023-06-14T09:05:07.610Z,499.00
2023-06-14T09:06:08.618Z,489.00
2023-06-14T09:07:08.581Z,506.00
2023-06-14T09:08:08.581Z,498.00
2023-06-14T09:09:08.578Z,516.00
2023-06-14T09:10:08.579Z,511.00
2023-06-14T09:11:08.551Z,500.00
2023-06-14T09:12:07.551Z,527.00
2023-06-14T09:13:08.549Z,525.00
2023-06-14T09:14:08.541Z,536.00
2023-06-14T09:15:08.530Z,531.00
2023-06-14T09:16:08.536Z,523.00
2023-06-14T09:17:07.550Z,528.00
2023-06-14T09:18:07.566Z,539.00
2023-06-14T09:19:08.517Z,535.00
2023-06-14T09:20:08.497Z,525.00
2023-06-14T09:21:08.521Z,541.00
2023-06-14T09:22:08.531Z,516.00
2023-06-14T09:23:08.467Z,519.00
2023-06-14T09:24:08.499Z,503.00
2023-06-14T09:25:08.467Z,502.00
2023-06-14T09:26:07.457Z,517.00
2023-06-14T09:27:07.447Z,509.00
2023-06-14T09:28:08.466Z,500.00
2023-06-14T09:29:08.448Z,496.00
2023-06-14T09:30:08.451Z,498.00
2023-06-14T09:31:08.562Z,517.00
2023-06-14T09:32:08.435Z,498.00
2023-06-14T09:33:08.627Z,517.00
2023-06-14T09:34:08.399Z,500.00
2023-06-14T09:35:08.415Z,511.00
2023-06-14T09:36:08.403Z,507.00
2023-06-14T09:37:08.392Z,527.00
2023-06-14T09:38:08.684Z,514.00
2023-06-14T09:39:07.419Z,508.00
2023-06-14T09:40:08.372Z,502.00
2023-06-14T09:41:07.368Z,512.00
2023-06-14T09:42:08.366Z,527.00
2023-06-14T09:43:08.362Z,531.00
2023-06-14T09:44:10.619Z,550.00
2023-06-14T09:45:08.370Z,550.00
2023-06-14T09:46:08.349Z,538.00
2023-06-14T09:47:08.346Z,538.00
2023-06-14T09:48:08.704Z,518.00
2023-06-14T09:49:08.490Z,519.00
2023-06-14T09:50:08.713Z,520.00
2023-06-14T09:51:08.329Z,572.00
2023-06-14T09:52:08.315Z,577.00
2023-06-14T09:53:08.541Z,597.00
2023-06-14T09:54:08.396Z,602.00
2023-06-14T09:55:09.554Z,563.00
2023-06-14T09:56:08.435Z,552.00
2023-06-14T09:57:08.472Z,567.00
2023-06-14T09:58:09.110Z,603.00
2023-06-14T09:59:08.773Z,606.00
2023-06-14T10:00:08.607Z,612.00
2023-06-14T10:01:07.675Z,612.00
2023-06-14T10:02:08.724Z,617.00
2023-06-14T10:03:08.743Z,627.00
2023-06-14T10:04:11.364Z,616.00
2023-06-14T10:05:08.885Z,600.00
2023-06-14T10:06:08.765Z,591.00
2023-06-14T10:07:07.787Z,582.00
2023-06-14T10:08:07.764Z,608.00
2023-06-14T10:09:07.762Z,607.00
2023-06-14T10:10:08.834Z,597.00
2023-06-14T10:11:08.733Z,580.00
2023-06-14T10:12:07.730Z,604.00
2023-06-14T10:13:07.724Z,593.00
2023-06-14T10:14:08.718Z,578.00
2023-06-14T10:15:07.704Z,562.00
2023-06-14T10:16:07.700Z,587.00
2023-06-14T10:17:08.696Z,578.00
2023-06-14T10:18:08.734Z,574.00
2023-06-14T10:19:08.685Z,607.00
2023-06-14T10:20:08.680Z,592.00
2023-06-14T10:21:08.678Z,631.00
2023-06-14T10:22:07.680Z,598.00
2023-06-14T10:23:08.661Z,566.00
2023-06-14T10:24:08.681Z,582.00
2023-06-14T10:25:08.651Z,554.00
2023-06-14T10:26:07.667Z,550.00
2023-06-14T10:27:07.623Z,595.00
2023-06-14T10:28:08.629Z,618.00
2023-06-14T10:29:08.644Z,614.00
2023-06-14T10:30:08.606Z,613.00
2023-06-14T10:31:07.604Z,625.00
2023-06-14T10:32:08.641Z,630.00
2023-06-14T10:33:08.668Z,581.00
2023-06-14T10:34:08.596Z,591.00
2023-06-14T10:35:08.675Z,594.00
2023-06-14T10:36:07.598Z,630.00
2023-06-14T10:37:08.562Z,633.00
2023-06-14T10:38:08.573Z,612.00
2023-06-14T10:39:07.570Z,608.00
2023-06-14T10:40:07.576Z,626.00
2023-06-14T10:41:07.562Z,621.00
2023-06-14T10:42:07.572Z,599.00
2023-06-14T10:43:08.548Z,612.00
2023-06-14T10:44:07.538Z,581.00
2023-06-14T10:45:07.754Z,584.00
2023-06-14T10:46:08.568Z,597.00
2023-06-14T10:47:08.521Z,612.00
2023-06-14T10:48:08.517Z,638.00
2023-06-14T10:49:07.491Z,659.00
2023-06-14T10:50:07.538Z,676.00
2023-06-14T10:51:08.595Z,671.00
2023-06-14T10:52:08.649Z,668.00
2023-06-14T10:53:07.665Z,705.00
2023-06-14T10:54:08.711Z,672.00
2023-06-14T10:55:08.737Z,622.00
2023-06-14T10:56:08.765Z,595.00
2023-06-14T10:57:08.810Z,606.00
2023-06-14T10:58:08.910Z,623.00
2023-06-14T10:59:07.903Z,625.00
2023-06-14T11:00:07.992Z,633.00
2023-06-14T11:01:07.996Z,629.00
2023-06-14T11:02:09.054Z,635.00
2023-06-14T11:03:09.218Z,638.00
2023-06-14T11:04:09.128Z,649.00
2023-06-14T11:05:09.112Z,660.00
2023-06-14T11:06:09.147Z,778.00
2023-06-14T11:07:09.207Z,880.00
2023-06-14T11:08:09.252Z,802.00
2023-06-14T11:09:09.300Z,785.00
2023-06-14T11:10:09.350Z,701.00
2023-06-14T11:11:10.227Z,730.00
2023-06-14T11:12:09.393Z,676.00
2023-06-14T11:13:08.403Z,665.00
2023-06-14T11:14:08.455Z,646.00
2023-06-14T11:15:08.443Z,656.00
2023-06-14T11:16:09.498Z,716.00
2023-06-14T11:17:09.461Z,712.00
2023-06-14T11:18:09.504Z,837.00
2023-06-14T11:19:09.524Z,996.00
2023-06-14T11:20:09.561Z,1172.00
2023-06-14T11:21:09.697Z,1328.00
2023-06-14T11:22:09.641Z,1389.00
2023-06-14T11:23:09.672Z,1372.00
2023-06-14T11:24:08.751Z,1508.00
2023-06-14T11:25:09.775Z,1686.00
2023-06-14T11:26:09.818Z,1649.00
2023-06-14T11:27:09.932Z,1415.00
2023-06-14T11:28:09.891Z,1264.00
2023-06-14T11:29:09.922Z,1145.00
2023-06-14T11:30:09.982Z,874.00
2023-06-14T11:31:10.002Z,756.00
2023-06-14T11:32:10.357Z,734.00
2023-06-14T11:33:09.075Z,675.00
2023-06-14T11:34:10.079Z,726.00
2023-06-14T11:35:10.103Z,664.00
2023-06-14T11:36:10.252Z,665.00
2023-06-14T11:37:10.118Z,698.00
2023-06-14T11:38:09.127Z,806.00
2023-06-14T11:39:09.177Z,911.00
2023-06-14T11:40:09.210Z,1030.00
2023-06-14T11:41:10.228Z,1186.00
2023-06-14T11:42:10.234Z,1312.00
2023-06-14T11:43:10.237Z,1449.00
2023-06-14T11:44:10.279Z,1636.00
2023-06-14T11:45:10.595Z,1745.00
2023-06-14T11:46:10.297Z,1885.00
2023-06-14T11:47:10.406Z,1934.00
2023-06-14T11:48:10.327Z,1976.00
2023-06-14T11:49:10.391Z,2007.00
2023-06-14T11:50:10.321Z,2093.00
2023-06-14T11:51:10.353Z,2178.00
2023-06-14T11:52:09.329Z,2192.00
2023-06-14T11:53:10.339Z,2227.00
2023-06-14T11:54:10.336Z,2196.00
2023-06-14T11:55:10.401Z,2240.00
2023-06-14T11:56:10.383Z,2228.00
2023-06-14T11:57:10.435Z,2214.00
2023-06-14T11:58:10.416Z,2279.00
2023-06-14T11:59:09.446Z,2274.00
2023-06-14T12:00:10.453Z,2278.00
2023-06-14T12:01:10.466Z,2307.00
2023-06-14T12:02:10.598Z,2278.00
2023-06-14T12:03:09.616Z,2286.00
2023-06-14T12:04:10.611Z,2282.00
2023-06-14T12:05:09.685Z,2263.00
2023-06-14T12:06:10.848Z,2266.00
2023-06-14T12:07:11.772Z,2288.00
2023-06-14T12:08:09.834Z,2243.00
2023-06-14T12:09:09.892Z,2228.00
2023-06-14T12:10:10.954Z,2233.00
2023-06-14T12:11:10.033Z,2249.00
2023-06-14T12:12:10.064Z,2245.00
2023-06-14T12:13:11.107Z,2220.00
2023-06-14T12:14:10.160Z,2229.00
2023-06-14T12:15:11.214Z,2204.00
2023-06-14T12:16:11.264Z,2233.00